createdAt,value
2023-04-06T00:02:24.857Z,0.77
2023-04-06T00:07:31.756Z,0.80
2023-04-06T00:12:39.483Z,0.77
2023-04-06T00:17:45.680Z,0.79
2023-04-06T00:22:52.222Z,0.73
2023-04-06T00:28:00.141Z,0.72
2023-04-06T00:33:06.639Z,0.70
2023-04-06T00:38:14.582Z,0.69
2023-04-06T00:43:22.546Z,0.66
2023-04-06T00:48:29.118Z,0.63
2023-04-06T00:53:35.452Z,0.60
2023-04-06T00:58:43.945Z,0.65
2023-04-06T01:03:51.695Z,0.56
2023-04-06T01:08:59.963Z,0.61
2023-04-06T01:14:09.651Z,0.56
2023-04-06T01:19:28.842Z,0.58
2023-04-06T01:24:37.340Z,0.47
2023-04-06T01:30:08.672Z,0.56
2023-04-06T01:35:31.764Z,0.48
2023-04-06T01:40:51.051Z,0.57
2023-04-06T01:46:00.153Z,0.60
2023-04-06T01:51:11.964Z,0.61
2023-04-06T01:56:27.901Z,0.63
2023-04-06T02:01:42.198Z,0.60
2023-04-06T02:06:48.779Z,0.63
2023-04-06T02:12:03.157Z,0.69
2023-04-06T02:17:12.552Z,0.72
2023-04-06T02:22:19.486Z,0.77
2023-04-06T02:27:27.323Z,0.82
2023-04-06T02:32:33.578Z,0.90
2023-04-06T02:37:40.813Z,0.95
2023-04-06T02:42:48.904Z,1.02
2023-04-06T02:48:00.975Z,1.06
2023-04-06T02:53:10.232Z,1.07
2023-04-06T02:58:20.148Z,1.07
2023-04-06T03:03:32.810Z,1.05
2023-04-06T03:08:39.764Z,1.08
2023-04-06T03:13:47.902Z,1.10
2023-04-06T03:18:54.557Z,1.10
2023-04-06T03:24:01.419Z,1.07
2023-04-06T03:29:09.341Z,1.05
2023-04-06T03:34:16.085Z,1.07
2023-04-06T03:39:22.440Z,1.05
2023-04-06T03:44:31.192Z,1.01
2023-04-06T03:49:38.619Z,0.99
2023-04-06T03:54:49.283Z,0.94
2023-04-06T03:59:57.598Z,0.94
2023-04-06T04:05:07.253Z,0.89
2023-04-06T04:10:13.756Z,0.88
2023-04-06T04:15:22.542Z,0.83
2023-04-06T04:20:29.920Z,0.86
2023-04-06T04:25:36.179Z,0.82
2023-04-06T04:30:44.621Z,0.82
2023-04-06T04:35:52.746Z,0.83
2023-04-06T04:41:01.587Z,0.85
2023-04-06T04:46:10.219Z,0.89
2023-04-06T04:51:21.055Z,0.90
2023-04-06T04:56:49.557Z,0.92
2023-04-06T05:02:22.568Z,0.95
2023-04-06T05:07:41.339Z,0.98
2023-04-06T05:12:53.245Z,0.88
2023-04-06T05:18:01.685Z,0.97
2023-04-06T05:23:12.587Z,0.96
2023-04-06T05:28:19.890Z,1.02
2023-04-06T05:33:28.794Z,1.09
2023-04-06T05:38:43.348Z,1.09
2023-04-06T05:44:08.115Z,1.13
2023-04-06T05:49:16.699Z,1.22
2023-04-06T05:54:23.951Z,1.27
2023-04-06T05:59:34.620Z,1.29
2023-04-06T06:04:42.736Z,1.43
2023-04-06T06:09:49.659Z,1.56
2023-04-06T06:15:03.299Z,1.63
2023-04-06T06:20:16.490Z,1.76
2023-04-06T06:25:24.257Z,1.83
2023-04-06T06:30:31.401Z,1.91
2023-04-06T06:35:40.980Z,2.12
2023-04-06T06:40:49.381Z,2.12
2023-04-06T06:45:58.150Z,2.30
2023-04-06T06:51:06.511Z,2.50
2023-04-06T06:56:14.336Z,2.47
2023-04-06T07:01:21.675Z,2.61
2023-04-06T07:06:30.340Z,2.74
2023-04-06T07:11:37.006Z,2.68
2023-04-06T07:16:43.701Z,2.87
2023-04-06T07:21:51.991Z,2.91
2023-04-06T07:26:59.151Z,2.99
2023-04-06T07:32:08.735Z,3.02
2023-04-06T07:37:16.835Z,3.02
2023-04-06T07:42:23.450Z,2.91
2023-04-06T07:47:30.174Z,2.97
2023-04-06T07:52:39.903Z,3.13
2023-04-06T07:57:47.270Z,3.21
2023-04-06T08:02:53.761Z,3.29
2023-04-06T08:08:02.157Z,3.40
2023-04-06T08:13:09.700Z,3.55
2023-04-06T08:18:16.551Z,3.71
2023-04-06T08:23:24.781Z,3.66
2023-04-06T08:28:31.397Z,3.56
2023-04-06T08:33:40.447Z,3.62
2023-04-06T08:38:48.179Z,3.51
2023-04-06T08:44:00.786Z,3.55
2023-04-06T08:49:08.714Z,3.73
2023-04-06T08:54:17.144Z,3.72
2023-04-06T08:59:24.035Z,3.74
2023-04-06T09:04:31.335Z,3.82
2023-04-06T09:09:44.704Z,3.65
2023-04-06T09:14:51.063Z,3.53
2023-04-06T09:19:59.550Z,3.14
2023-04-06T09:25:09.294Z,3.19
2023-04-06T09:30:18.116Z,3.37
2023-04-06T09:35:25.604Z,3.43
2023-04-06T09:40:33.820Z,3.27
2023-04-06T09:45:40.763Z,3.11
2023-04-06T09:50:47.650Z,3.20
2023-04-06T09:55:58.492Z,3.33
2023-04-06T10:01:12.546Z,3.27
2023-04-06T10:06:26.722Z,3.17
2023-04-06T10:11:35.159Z,3.28
2023-04-06T10:16:41.725Z,3.24
2023-04-06T10:21:51.090Z,3.32
2023-04-06T10:27:04.643Z,2.88
2023-04-06T10:32:11.443Z,2.73
2023-04-06T10:37:20.405Z,2.68
2023-04-06T10:42:39.124Z,2.81
2023-04-06T10:47:45.603Z,3.01
2023-04-06T10:53:03.981Z,3.04
2023-04-06T10:58:11.990Z,3.05
2023-04-06T11:03:19.440Z,3.12
2023-04-06T11:08:30.390Z,3.17
2023-04-06T11:13:47.212Z,3.19
2023-04-06T11:18:56.862Z,3.14
2023-04-06T11:24:14.757Z,3.24
2023-04-06T11:29:26.144Z,3.22
2023-04-06T11:34:40.850Z,3.25
2023-04-06T11:39:52.048Z,3.19
2023-04-06T11:45:01.047Z,3.14
2023-04-06T11:50:11.919Z,3.25
2023-04-06T11:55:18.944Z,3.40
2023-04-06T12:00:27.001Z,3.24
2023-04-06T12:05:35.572Z,3.23
2023-04-06T12:10:41.926Z,3.25
2023-04-06T12:15:51.263Z,3.36
2023-04-06T12:20:58.100Z,3.21
2023-04-06T12:26:05.569Z,3.28
2023-04-06T12:31:18.465Z,3.31
2023-04-06T12:36:25.436Z,3.35
2023-04-06T12:41:35.914Z,3.41
2023-04-06T12:46:44.554Z,3.36
2023-04-06T12:51:51.530Z,3.43
2023-04-06T12:57:03.427Z,3.48
2023-04-06T13:02:29.783Z,3.40
2023-04-06T13:07:43.523Z,3.42
2023-04-06T13:12:57.058Z,3.40
2023-04-06T13:18:19.090Z,3.31
2023-04-06T13:23:39.874Z,3.42
2023-04-06T13:29:00.317Z,3.45
2023-04-06T13:34:20.712Z,3.39
2023-04-06T13:39:35.876Z,3.47
2023-04-06T13:44:53.683Z,3.51
2023-04-06T13:50:14.274Z,3.44
2023-04-06T13:55:31.765Z,3.35
2023-04-06T14:00:58.672Z,3.43
2023-04-06T14:06:30.992Z,3.45
2023-04-06T14:11:54.670Z,3.52
2023-04-06T14:17:13.360Z,3.49
2023-04-06T14:22:32.765Z,3.45
2023-04-06T14:28:03.248Z,3.41
2023-04-06T14:33:28.824Z,3.48
2023-04-06T14:38:53.173Z,3.49
2023-04-06T14:44:10.301Z,3.52
2023-04-06T14:49:26.086Z,3.46
2023-04-06T14:54:59.058Z,3.52
2023-04-06T15:00:20.641Z,3.54
2023-04-06T15:05:39.211Z,3.48
2023-04-06T15:11:05.503Z,3.40
2023-04-06T15:16:21.473Z,3.43
2023-04-06T15:21:38.957Z,3.39
2023-04-06T15:27:03.488Z,3.42
2023-04-06T15:32:32.146Z,3.44
2023-04-06T15:37:51.437Z,3.32
2023-04-06T15:43:17.106Z,3.31
2023-04-06T15:48:42.112Z,3.34
2023-04-06T15:53:56.771Z,3.31
2023-04-06T15:59:17.575Z,3.23
2023-04-06T16:04:35.651Z,3.15
2023-04-06T16:09:58.487Z,3.11
2023-04-06T16:15:24.022Z,3.05
2023-04-06T16:20:51.300Z,3.08
2023-04-06T16:26:20.069Z,3.05
2023-04-06T16:31:40.693Z,3.09
2023-04-06T16:36:57.611Z,3.08
2023-04-06T16:42:11.830Z,3.05
2023-04-06T16:47:34.649Z,3.02
2023-04-06T16:52:50.348Z,3.04
2023-04-06T16:58:09.598Z,2.97
2023-04-06T17:03:39.551Z,3.04
2023-04-06T17:08:59.334Z,3.05
2023-04-06T17:14:22.645Z,3.10
2023-04-06T17:19:46.352Z,3.12
2023-04-06T17:25:01.816Z,3.12
2023-04-06T17:30:18.726Z,3.15
2023-04-06T17:35:43.418Z,3.15
2023-04-06T17:40:59.481Z,3.12
2023-04-06T17:46:20.826Z,3.11
2023-04-06T17:51:47.689Z,3.09
2023-04-06T17:57:16.109Z,3.01
2023-04-06T18:02:38.589Z,3.04
2023-04-06T18:08:22.973Z,3.02
2023-04-06T18:13:44.979Z,2.98
2023-04-06T18:19:07.556Z,3.01
2023-04-06T18:24:41.276Z,3.01
2023-04-06T18:30:02.766Z,2.94
2023-04-06T18:35:17.473Z,2.89
2023-04-06T18:40:44.460Z,2.87
2023-04-06T18:46:11.761Z,2.86
2023-04-06T18:51:35.277Z,2.79
2023-04-06T18:56:54.136Z,2.78
2023-04-06T19:02:09.733Z,2.78
2023-04-06T19:07:28.986Z,2.80
2023-04-06T19:12:47.216Z,2.76
2023-04-06T19:18:06.242Z,2.70
2023-04-06T19:23:29.992Z,2.75
2023-04-06T19:28:55.666Z,2.72
2023-04-06T19:34:26.802Z,2.68
2023-04-06T19:39:56.324Z,2.70
2023-04-06T19:45:29.538Z,2.66
2023-04-06T19:51:01.954Z,2.66
2023-04-06T19:56:19.729Z,2.63
2023-04-06T20:01:48.424Z,2.67
2023-04-06T20:07:12.135Z,2.61
2023-04-06T20:12:36.243Z,2.60
2023-04-06T20:18:01.523Z,2.60
2023-04-06T20:23:23.773Z,2.52
2023-04-06T20:28:46.486Z,2.56
2023-04-06T20:34:08.870Z,2.54
2023-04-06T20:39:43.482Z,2.51
2023-04-06T20:45:07.026Z,2.51
2023-04-06T20:50:31.026Z,2.54
2023-04-06T20:55:50.366Z,2.57
2023-04-06T21:01:02.444Z,2.58
2023-04-06T21:06:22.273Z,2.60
2023-04-06T21:11:38.250Z,2.58
2023-04-06T21:16:52.106Z,2.61
2023-04-06T21:22:11.431Z,2.64
2023-04-06T21:27:23.723Z,2.64
2023-04-06T21:32:33.654Z,2.63
2023-04-06T21:37:44.409Z,2.66
2023-04-06T21:42:59.131Z,2.67
2023-04-06T21:48:08.932Z,2.71
2023-04-06T21:53:19.495Z,2.72
2023-04-06T21:58:28.127Z,2.73
2023-04-06T22:03:38.935Z,2.72
2023-04-06T22:08:52.911Z,2.76
2023-04-06T22:14:03.190Z,2.81
2023-04-06T22:19:11.558Z,2.83
2023-04-06T22:24:23.199Z,2.86
2023-04-06T22:29:30.491Z,2.90
2023-04-06T22:34:37.728Z,2.92
2023-04-06T22:39:46.950Z,2.94
2023-04-06T22:44:53.932Z,2.96
2023-04-06T22:50:00.706Z,2.98
2023-04-06T22:55:10.369Z,3.01
2023-04-06T23:00:17.502Z,3.03
2023-04-06T23:05:24.056Z,3.05
2023-04-06T23:10:32.346Z,3.10
2023-04-06T23:15:41.972Z,3.13
2023-04-06T23:20:48.831Z,3.19
2023-04-06T23:25:56.706Z,3.24
2023-04-06T23:31:03.496Z,3.23
2023-04-06T23:36:10.270Z,3.27
2023-04-06T23:41:18.334Z,3.29
2023-04-06T23:46:25.379Z,3.29
2023-04-06T23:51:32.219Z,3.31
2023-04-06T23:56:39.825Z,3.35
